• Join FlightAware (Why Join?)
  • Login
  • US Flag 
02:07AM EDT


 

Airport Tracker/Info


-or-


 

Live Flight TrackerFlight Track Log ✈ UAL4625 ✈ 17-Apr-2014 ✈ CYYZ - KIAD

Flight Track Log - Related Links

Times and Time Zones

All times are in EDT time to prevent confusion due to time zone crossing. See the UAL4625 flight status page for this flight to view local times or setup timezone preferences in your user account.

Time Position Orientation Groundspeed Altitude Reporting Facility
EDT Latitude Longitude Course Direction KTS MPH feet Rate Location/Type
02:48PM 43.6833 -79.5333 130° Southeast 160 184 2,300  Level Toronto Center
02:49PM 43.7333 -79.4667 44° Northeast 220 253 3,800 1,800 Climbing Toronto Center
02:50PM 43.7000 -79.4000 125° Southeast 250 288 6,000 2,100 Climbing Toronto Center
02:51PM 43.6500 -79.3167 130° Southeast 260 299 8,000 2,100 Climbing Toronto Center
02:52PM 43.6000 -79.2333 130° Southeast 270 311 10,300 1,800 Climbing Toronto Center
02:53PM 43.5333 -79.1667 144° Southeast 290 334 11,600 840 Climbing Toronto Center
02:54PM 43.5950 -79.5898 130° Southeast  Level Estimated
02:54PM 43.4667 -79.0833 138° Southeast 340 391 12,000  Level Toronto Center
02:55PM 43.4000 -78.9833 133° Southeast 370 426 13,900 2,040 Climbing Toronto Center
02:56PM 43.3500 -78.8500 117° Southeast 370 426 16,100 1,800 Climbing Toronto Center
02:57PM 43.2964 -78.7531 127° Southeast 347 399 18,000 1,020 Climbing Cleveland Center
02:58PM 43.2433 -78.6286 120° Southeast 374 430 18,500 780 Climbing Cleveland Center
02:59PM 43.1769 -78.4739 120° Southeast 390 449 19,700 1,020 Climbing Cleveland Center
03:00PM 43.1186 -78.3406 121° Southeast 403 464 20,700 960 Climbing Cleveland Center
03:02PM 43.0228 -78.2692 151° Southeast 398 458 21,700 960 Climbing Cleveland Center
03:03PM 42.9150 -78.2617 177° South 390 449 22,700 960 Climbing Cleveland Center
03:04PM 42.8069 -78.2536 177° South 392 451 23,700 960 Climbing Cleveland Center
03:05PM 42.6767 -78.2442 177° South 392 451 24,800 600 Climbing Cleveland Center
03:06PM 42.5667 -78.2361 177° South 396 456 25,000 60 Climbing Cleveland Center
03:07PM 42.4511 -78.2294 178° South 416 479 25,000  Level Cleveland Center
03:08PM 42.3308 -78.2214 177° South 430 495 25,000  Level Cleveland Center
03:09PM 42.2103 -78.2125 177° South 433 498 25,000  Level Cleveland Center
03:10PM 42.0814 -78.2031 177° South 436 502 25,000  Level Cleveland Center
03:11PM 41.9433 -78.1944 177° South 437 503 25,000  Level Cleveland Center
03:12PM 41.8131 -78.1847 177° South 438 504 25,000  Level Cleveland Center
03:13PM 41.6919 -78.1764 177° South 439 505 25,000  Level Cleveland Center
03:14PM 41.5692 -78.1683 177° South 439 505 25,000  Level Cleveland Center
03:15PM 41.4481 -78.1594 177° South 439 505 25,000  Level Cleveland Center
03:16PM 41.3258 -78.1511 177° South 439 505 25,000  Level Cleveland Center
03:17PM 41.1808 -78.1244 172° South 439 505 25,000  Level Cleveland Center
03:18PM 41.0636 -78.0669 160° South 443 510 25,000  Level Cleveland Center
03:19PM 40.9481 -78.0094 159° South 443 510 25,000 -300 Level Cleveland Center
03:20PM 40.8422 -77.9211 148° Southeast 446 513 24,400 -1,020 Descending Cleveland Center
03:21PM 40.7375 -77.8556 155° Southeast 424 488 22,900 -1,500 Descending Cleveland Center
03:22PM 40.6300 -77.7908 155° Southeast 423 487 21,300 -1,740 Descending Cleveland Center
03:23PM 40.5011 -77.7131 155° Southeast 424 488 19,400 -1,560 Descending Cleveland Center
03:24PM 40.3989 -77.6506 155° Southeast 411 473 18,100 -1,020 Descending Cleveland Center
03:25PM 40.3006 -77.5919 156° South 393 452 17,400 -1,200 Descending Cleveland Center
03:26PM 40.1900 -77.5242 155° Southeast 393 452 15,700 -1,620 Descending Cleveland Center
03:27PM 40.0903 -77.4653 156° South 393 452 14,100 -1,380 Descending Cleveland Center
03:28PM 39.9931 -77.4081 156° South 387 445 12,900 -420 Descending Cleveland Center
03:30PM 39.8333 -77.4000 178° South 358 412 13,000 -120 Climbing Potomac TRACON
03:31PM 39.7333 -77.4167 187° South 314 361 12,700 -1,140 Descending Potomac TRACON
03:32PM 39.6500 -77.4167 180° South 281 323 10,800 -1,860 Descending Potomac TRACON
03:33PM 39.5833 -77.4333 191° South 276 318 9,000 -1,620 Descending Potomac TRACON
03:34PM 39.5000 -77.4333 180° South 274 315 7,600 -1,080 Descending Potomac TRACON
03:35PM 39.4333 -77.4333 180° South 262 302 7,000 -420 Descending Potomac TRACON
03:36PM 39.3500 -77.4500 189° South 258 297 6,800 -540 Descending Potomac TRACON
03:37PM 39.3000 -77.4500 180° South 245 282 6,000 -600 Descending Potomac TRACON
03:38PM 39.2333 -77.4500 180° South 254 292 5,700 -960 Descending Potomac TRACON
03:39PM 39.1500 -77.4500 180° South 250 288 4,000 -1,500 Descending Potomac TRACON
03:40PM 39.0833 -77.4500 180° South 246 283 2,800 -1,260 Descending Potomac TRACON
03:41PM 39.0333 -77.4667 195° South 208 239 1,600 -1,140 Descending Potomac TRACON
03:42PM 38.9833 -77.4667 180° South 144 166 600 -1,020 Descending Potomac TRACON